sensor_id;sensor_type;location;lat;lon;timestamp;pressure;altitude;pressure_sealevel;temperature;humidity
26719;BME280;14326;50.794;6.060;2023-04-26T00:01:31;99933.84;;;4.24;89.22
26719;BME280;14326;50.794;6.060;2023-04-26T00:03:59;99936.44;;;4.23;89.12
26719;BME280;14326;50.794;6.060;2023-04-26T00:06:27;99940.91;;;4.25;89.35
26719;BME280;14326;50.794;6.060;2023-04-26T00:08:54;99934.75;;;4.25;88.70
26719;BME280;14326;50.794;6.060;2023-04-26T00:11:32;99941.75;;;4.24;89.27
26719;BME280;14326;50.794;6.060;2023-04-26T00:14:04;99936.19;;;4.17;89.56
26719;BME280;14326;50.794;6.060;2023-04-26T00:16:48;99938.03;;;4.19;89.05
26719;BME280;14326;50.794;6.060;2023-04-26T00:19:23;99927.34;;;4.15;89.15
26719;BME280;14326;50.794;6.060;2023-04-26T00:21:56;99934.22;;;4.11;89.42
26719;BME280;14326;50.794;6.060;2023-04-26T00:24:44;99930.03;;;3.94;89.50
26719;BME280;14326;50.794;6.060;2023-04-26T00:30:27;99937.75;;;3.68;90.67
26719;BME280;14326;50.794;6.060;2023-04-26T00:33:01;99932.94;;;3.58;91.31
26719;BME280;14326;50.794;6.060;2023-04-26T00:35:38;99934.41;;;3.52;91.93
26719;BME280;14326;50.794;6.060;2023-04-26T00:38:24;99937.13;;;3.53;92.00
26719;BME280;14326;50.794;6.060;2023-04-26T00:41:10;99937.72;;;3.48;92.14
26719;BME280;14326;50.794;6.060;2023-04-26T00:43:57;99942.69;;;3.40;92.18
26719;BME280;14326;50.794;6.060;2023-04-26T00:49:24;99925.81;;;3.56;92.40
26719;BME280;14326;50.794;6.060;2023-04-26T00:52:09;99932.22;;;3.62;92.22
26719;BME280;14326;50.794;6.060;2023-04-26T00:57:39;99926.47;;;3.71;91.60
26719;BME280;14326;50.794;6.060;2023-04-26T01:00:22;99933.50;;;3.72;91.50
26719;BME280;14326;50.794;6.060;2023-04-26T01:03:02;99930.56;;;3.64;91.53
26719;BME280;14326;50.794;6.060;2023-04-26T01:05:48;99925.81;;;3.77;91.38
26719;BME280;14326;50.794;6.060;2023-04-26T01:08:25;99933.59;;;3.53;90.94
26719;BME280;14326;50.794;6.060;2023-04-26T01:10:52;99934.03;;;3.43;91.77
26719;BME280;14326;50.794;6.060;2023-04-26T01:13:24;99932.00;;;3.36;92.94
26719;BME280;14326;50.794;6.060;2023-04-26T01:16:08;99936.09;;;3.29;93.66
26719;BME280;14326;50.794;6.060;2023-04-26T01:18:40;99936.38;;;3.37;93.37
26719;BME280;14326;50.794;6.060;2023-04-26T01:21:32;99932.38;;;3.45;92.27
26719;BME280;14326;50.794;6.060;2023-04-26T01:24:08;99935.75;;;3.42;92.11
26719;BME280;14326;50.794;6.060;2023-04-26T01:26:39;99932.44;;;3.46;92.06
26719;BME280;14326;50.794;6.060;2023-04-26T01:29:22;99934.53;;;3.34;92.05
26719;BME280;14326;50.794;6.060;2023-04-26T01:32:17;99924.53;;;3.25;92.36
26719;BME280;14326;50.794;6.060;2023-04-26T01:34:44;99937.34;;;3.18;92.96
26719;BME280;14326;50.794;6.060;2023-04-26T01:37:28;99932.47;;;3.06;93.52
26719;BME280;14326;50.794;6.060;2023-04-26T01:39:57;99933.81;;;3.17;93.38
26719;BME280;14326;50.794;6.060;2023-04-26T01:42:30;99934.19;;;3.06;93.36
26719;BME280;14326;50.794;6.060;2023-04-26T01:44:59;99928.31;;;3.11;94.00
26719;BME280;14326;50.794;6.060;2023-04-26T01:47:37;99931.84;;;3.12;93.33
26719;BME280;14326;50.794;6.060;2023-04-26T01:50:05;99934.59;;;2.96;93.36
26719;BME280;14326;50.794;6.060;2023-04-26T01:52:32;99933.03;;;2.80;93.60
26719;BME280;14326;50.794;6.060;2023-04-26T01:55:00;99936.81;;;2.67;94.86
26719;BME280;14326;50.794;6.060;2023-04-26T01:57:27;99929.94;;;2.69;95.37
26719;BME280;14326;50.794;6.060;2023-04-26T01:59:58;99932.88;;;2.77;95.65
26719;BME280;14326;50.794;6.060;2023-04-26T02:05:49;99931.22;;;2.79;95.68
26719;BME280;14326;50.794;6.060;2023-04-26T02:08:15;99926.97;;;2.81;95.85
26719;BME280;14326;50.794;6.060;2023-04-26T02:10:43;99929.59;;;2.81;95.73
26719;BME280;14326;50.794;6.060;2023-04-26T02:13:24;99935.66;;;2.61;96.10
26719;BME280;14326;50.794;6.060;2023-04-26T02:16:37;99940.56;;;2.72;96.71
26719;BME280;14326;50.794;6.060;2023-04-26T02:19:09;99931.66;;;2.69;95.84
26719;BME280;14326;50.794;6.060;2023-04-26T02:21:59;99936.75;;;2.85;95.62
26719;BME280;14326;50.794;6.060;2023-04-26T02:24:58;99932.94;;;2.78;95.46
26719;BME280;14326;50.794;6.060;2023-04-26T02:27:29;99942.34;;;2.73;96.45
26719;BME280;14326;50.794;6.060;2023-04-26T02:29:58;99939.66;;;2.72;96.48
26719;BME280;14326;50.794;6.060;2023-04-26T02:33:03;99938.34;;;2.81;95.36
26719;BME280;14326;50.794;6.060;2023-04-26T02:35:34;99942.44;;;2.75;95.15
26719;BME280;14326;50.794;6.060;2023-04-26T02:38:08;99939.38;;;2.66;95.27
26719;BME280;14326;50.794;6.060;2023-04-26T02:40:44;99935.66;;;2.61;95.23
26719;BME280;14326;50.794;6.060;2023-04-26T02:43:26;99929.16;;;2.33;95.37
26719;BME280;14326;50.794;6.060;2023-04-26T02:48:32;99936.06;;;2.14;96.63
26719;BME280;14326;50.794;6.060;2023-04-26T02:50:59;99934.06;;;2.08;97.32
26719;BME280;14326;50.794;6.060;2023-04-26T02:53:26;99922.13;;;2.15;98.00
26719;BME280;14326;50.794;6.060;2023-04-26T02:55:53;99927.38;;;2.15;98.40
26719;BME280;14326;50.794;6.060;2023-04-26T02:58:21;99930.22;;;2.19;98.36
26719;BME280;14326;50.794;6.060;2023-04-26T03:01:16;99924.84;;;2.16;98.35
26719;BME280;14326;50.794;6.060;2023-04-26T03:03:51;99915.84;;;2.11;97.73
26719;BME280;14326;50.794;6.060;2023-04-26T03:06:19;99914.97;;;2.11;98.14
26719;BME280;14326;50.794;6.060;2023-04-26T03:09:12;99908.88;;;2.12;98.21
26719;BME280;14326;50.794;6.060;2023-04-26T03:12:07;99900.41;;;2.17;98.65
26719;BME280;14326;50.794;6.060;2023-04-26T03:14:45;99904.09;;;2.03;98.14
26719;BME280;14326;50.794;6.060;2023-04-26T03:17:25;99900.94;;;2.10;97.74
26719;BME280;14326;50.794;6.060;2023-04-26T03:19:57;99898.59;;;2.16;98.37
26719;BME280;14326;50.794;6.060;2023-04-26T03:22:24;99896.50;;;2.09;98.46
26719;BME280;14326;50.794;6.060;2023-04-26T03:25:06;99899.63;;;2.20;97.60
26719;BME280;14326;50.794;6.060;2023-04-26T03:27:40;99905.50;;;2.14;97.50
26719;BME280;14326;50.794;6.060;2023-04-26T03:30:09;99911.28;;;2.07;97.29
26719;BME280;14326;50.794;6.060;2023-04-26T03:32:37;99909.34;;;2.03;97.83
26719;BME280;14326;50.794;6.060;2023-04-26T03:35:05;99907.00;;;2.09;98.12
26719;BME280;14326;50.794;6.060;2023-04-26T03:37:31;99903.56;;;2.10;98.37
26719;BME280;14326;50.794;6.060;2023-04-26T03:39:58;99899.53;;;1.99;97.57
26719;BME280;14326;50.794;6.060;2023-04-26T03:42:34;99898.75;;;1.82;97.58
26719;BME280;14326;50.794;6.060;2023-04-26T03:45:20;99889.69;;;1.76;98.42
26719;BME280;14326;50.794;6.060;2023-04-26T03:47:51;99897.91;;;1.65;99.25
26719;BME280;14326;50.794;6.060;2023-04-26T03:50:40;99889.50;;;1.73;99.88
26719;BME280;14326;50.794;6.060;2023-04-26T03:53:18;99888.91;;;1.78;99.66
26719;BME280;14326;50.794;6.060;2023-04-26T03:56:15;99886.78;;;1.89;98.74
26719;BME280;14326;50.794;6.060;2023-04-26T03:58:42;99895.34;;;1.85;99.20
26719;BME280;14326;50.794;6.060;2023-04-26T04:01:15;99903.09;;;1.82;99.38
26719;BME280;14326;50.794;6.060;2023-04-26T04:04:02;99902.50;;;1.70;98.93
26719;BME280;14326;50.794;6.060;2023-04-26T04:06:43;99897.16;;;1.68;99.54
26719;BME280;14326;50.794;6.060;2023-04-26T04:09:10;99899.09;;;1.54;99.87
26719;BME280;14326;50.794;6.060;2023-04-26T04:12:12;99903.41;;;1.52;100.00
26719;BME280;14326;50.794;6.060;2023-04-26T04:14:49;99901.59;;;1.51;99.76
26719;BME280;14326;50.794;6.060;2023-04-26T04:17:21;99901.44;;;1.48;100.00
26719;BME280;14326;50.794;6.060;2023-04-26T04:19:47;99905.31;;;1.39;99.96
26719;BME280;14326;50.794;6.060;2023-04-26T04:22:14;99911.38;;;1.38;100.00
26719;BME280;14326;50.794;6.060;2023-04-26T04:24:40;99911.69;;;1.44;100.00
26719;BME280;14326;50.794;6.060;2023-04-26T04:27:08;99909.53;;;1.53;100.00
26719;BME280;14326;50.794;6.060;2023-04-26T04:29:48;99921.50;;;1.65;100.00
26719;BME280;14326;50.794;6.060;2023-04-26T04:32:23;99925.19;;;1.69;100.00
26719;BME280;14326;50.794;6.060;2023-04-26T04:34:58;99919.19;;;1.72;100.00
26719;BME280;14326;50.794;6.060;2023-04-26T04:37:39;99917.09;;;1.64;100.00
26719;BME280;14326;50.794;6.060;2023-04-26T04:40:07;99917.72;;;1.59;100.00
26719;BME280;14326;50.794;6.060;2023-04-26T04:42:41;99913.59;;;1.64;100.00
26719;BME280;14326;50.794;6.060;2023-04-26T04:45:16;99922.94;;;1.77;100.00
26719;BME280;14326;50.794;6.060;2023-04-26T04:47:44;99918.44;;;1.92;100.00
26719;BME280;14326;50.794;6.060;2023-04-26T04:50:12;99921.34;;;1.98;100.00
26719;BME280;14326;50.794;6.060;2023-04-26T04:52:38;99923.66;;;1.92;100.00
26719;BME280;14326;50.794;6.060;2023-04-26T04:55:26;99920.97;;;1.90;100.00
26719;BME280;14326;50.794;6.060;2023-04-26T04:58:03;99923.38;;;1.86;100.00
26719;BME280;14326;50.794;6.060;2023-04-26T05:00:50;99930.13;;;1.98;100.00
26719;BME280;14326;50.794;6.060;2023-04-26T05:03:29;99934.97;;;2.09;100.00
26719;BME280;14326;50.794;6.060;2023-04-26T05:05:58;99943.88;;;2.12;100.00
26719;BME280;14326;50.794;6.060;2023-04-26T05:08:25;99940.28;;;2.10;100.00
26719;BME280;14326;50.794;6.060;2023-04-26T05:10:52;99943.94;;;2.14;100.00
26719;BME280;14326;50.794;6.060;2023-04-26T05:13:28;99948.53;;;2.18;100.00
26719;BME280;14326;50.794;6.060;2023-04-26T05:15:56;99946.03;;;2.21;100.00
26719;BME280;14326;50.794;6.060;2023-04-26T05:18:22;99950.88;;;2.31;100.00
26719;BME280;14326;50.794;6.060;2023-04-26T05:20:50;99957.69;;;2.45;100.00
26719;BME280;14326;50.794;6.060;2023-04-26T05:23:19;99947.31;;;2.48;100.00
26719;BME280;14326;50.794;6.060;2023-04-26T05:25:49;99952.81;;;2.53;100.00
26719;BME280;14326;50.794;6.060;2023-04-26T05:28:34;99946.31;;;2.64;100.00
26719;BME280;14326;50.794;6.060;2023-04-26T05:31:09;99946.44;;;2.86;100.00
26719;BME280;14326;50.794;6.060;2023-04-26T05:33:49;99948.38;;;2.90;100.00
26719;BME280;14326;50.794;6.060;2023-04-26T05:36:19;99945.00;;;2.93;100.00
26719;BME280;14326;50.794;6.060;2023-04-26T05:38:46;99946.69;;;3.11;100.00
26719;BME280;14326;50.794;6.060;2023-04-26T05:41:14;99939.50;;;3.47;99.96
26719;BME280;14326;50.794;6.060;2023-04-26T05:43:40;99949.41;;;3.75;98.52
26719;BME280;14326;50.794;6.060;2023-04-26T05:46:07;99945.03;;;4.19;95.50
26719;BME280;14326;50.794;6.060;2023-04-26T05:48:34;99944.91;;;4.60;92.42
26719;BME280;14326;50.794;6.060;2023-04-26T05:54:00;99946.38;;;5.49;89.12
26719;BME280;14326;50.794;6.060;2023-04-26T05:56:26;99942.81;;;5.73;85.75
26719;BME280;14326;50.794;6.060;2023-04-26T05:59:23;99940.78;;;5.90;85.30
26719;BME280;14326;50.794;6.060;2023-04-26T06:01:51;99940.47;;;6.08;84.23
26719;BME280;14326;50.794;6.060;2023-04-26T06:04:20;99936.09;;;6.65;81.63
26719;BME280;14326;50.794;6.060;2023-04-26T06:07:05;99938.69;;;6.93;83.10
26719;BME280;14326;50.794;6.060;2023-04-26T06:09:35;99945.56;;;7.18;81.96
26719;BME280;14326;50.794;6.060;2023-04-26T06:12:20;99943.69;;;7.14;79.55
26719;BME280;14326;50.794;6.060;2023-04-26T06:15:00;99932.19;;;7.79;79.19
26719;BME280;14326;50.794;6.060;2023-04-26T06:17:40;99932.44;;;7.90;79.00
26719;BME280;14326;50.794;6.060;2023-04-26T06:20:12;99932.63;;;7.62;78.01
26719;BME280;14326;50.794;6.060;2023-04-26T06:22:41;99934.56;;;7.69;76.50
26719;BME280;14326;50.794;6.060;2023-04-26T06:25:23;99936.97;;;7.94;77.66
26719;BME280;14326;50.794;6.060;2023-04-26T06:27:49;99952.13;;;8.00;75.53
26719;BME280;14326;50.794;6.060;2023-04-26T06:30:19;99949.50;;;8.01;75.89
26719;BME280;14326;50.794;6.060;2023-04-26T06:32:46;99948.28;;;7.87;75.80
26719;BME280;14326;50.794;6.060;2023-04-26T06:35:12;99946.22;;;8.11;74.96
26719;BME280;14326;50.794;6.060;2023-04-26T06:37:51;99952.53;;;8.16;73.08
26719;BME280;14326;50.794;6.060;2023-04-26T06:40:18;99937.34;;;8.09;73.56
26719;BME280;14326;50.794;6.060;2023-04-26T06:42:48;99946.78;;;7.98;73.03
26719;BME280;14326;50.794;6.060;2023-04-26T06:45:15;99948.94;;;7.78;74.22
26719;BME280;14326;50.794;6.060;2023-04-26T06:47:46;99954.00;;;7.69;69.00
26719;BME280;14326;50.794;6.060;2023-04-26T06:50:13;99952.25;;;7.70;68.81
26719;BME280;14326;50.794;6.060;2023-04-26T06:52:41;99945.09;;;8.02;70.84
26719;BME280;14326;50.794;6.060;2023-04-26T06:55:24;99950.97;;;8.25;70.96
26719;BME280;14326;50.794;6.060;2023-04-26T06:58:05;99947.28;;;8.18;68.80
26719;BME280;14326;50.794;6.060;2023-04-26T07:00:35;99946.00;;;8.38;67.59
26719;BME280;14326;50.794;6.060;2023-04-26T07:03:02;99952.34;;;8.45;67.44
26719;BME280;14326;50.794;6.060;2023-04-26T07:05:28;99951.06;;;8.29;66.48
26719;BME280;14326;50.794;6.060;2023-04-26T07:07:55;99957.38;;;8.33;65.72
26719;BME280;14326;50.794;6.060;2023-04-26T07:10:27;99955.34;;;8.22;67.09
26719;BME280;14326;50.794;6.060;2023-04-26T07:12:59;99963.13;;;8.52;66.54
26719;BME280;14326;50.794;6.060;2023-04-26T07:15:27;99961.16;;;8.44;60.31
26719;BME280;14326;50.794;6.060;2023-04-26T07:17:54;99962.91;;;8.42;64.47
26719;BME280;14326;50.794;6.060;2023-04-26T07:20:33;99958.44;;;8.41;65.98
26719;BME280;14326;50.794;6.060;2023-04-26T07:23:06;99959.59;;;8.52;66.02
26719;BME280;14326;50.794;6.060;2023-04-26T07:25:35;99959.50;;;8.49;63.60
26719;BME280;14326;50.794;6.060;2023-04-26T07:28:02;99959.97;;;8.69;65.21
26719;BME280;14326;50.794;6.060;2023-04-26T07:30:30;99964.75;;;8.86;62.29
26719;BME280;14326;50.794;6.060;2023-04-26T07:32:57;99954.28;;;8.92;63.76
26719;BME280;14326;50.794;6.060;2023-04-26T07:35:54;99964.09;;;8.95;65.08
26719;BME280;14326;50.794;6.060;2023-04-26T07:38:35;99957.38;;;9.14;64.71
26719;BME280;14326;50.794;6.060;2023-04-26T07:41:16;99947.16;;;9.33;62.86
26719;BME280;14326;50.794;6.060;2023-04-26T07:43:46;99952.69;;;9.45;62.46
26719;BME280;14326;50.794;6.060;2023-04-26T07:46:14;99945.25;;;9.26;61.80
26719;BME280;14326;50.794;6.060;2023-04-26T07:48:41;99933.53;;;9.15;60.24
26719;BME280;14326;50.794;6.060;2023-04-26T07:51:09;99935.75;;;8.95;62.41
26719;BME280;14326;50.794;6.060;2023-04-26T07:54:06;99935.97;;;9.04;61.28
26719;BME280;14326;50.794;6.060;2023-04-26T07:56:37;99932.75;;;9.21;58.74
26719;BME280;14326;50.794;6.060;2023-04-26T07:59:04;99933.91;;;9.35;56.99
26719;BME280;14326;50.794;6.060;2023-04-26T08:01:46;99931.94;;;9.25;58.63
26719;BME280;14326;50.794;6.060;2023-04-26T08:04:12;99932.56;;;9.12;62.12
26719;BME280;14326;50.794;6.060;2023-04-26T08:06:39;99929.81;;;9.06;64.01
26719;BME280;14326;50.794;6.060;2023-04-26T08:09:09;99932.34;;;8.99;61.92
26719;BME280;14326;50.794;6.060;2023-04-26T08:11:37;99937.03;;;8.72;64.66
26719;BME280;14326;50.794;6.060;2023-04-26T08:14:04;99937.72;;;8.26;64.30
26719;BME280;14326;50.794;6.060;2023-04-26T08:16:31;99936.22;;;8.34;67.47
26719;BME280;14326;50.794;6.060;2023-04-26T08:19:12;99945.88;;;8.71;66.29
26719;BME280;14326;50.794;6.060;2023-04-26T08:21:39;99949.53;;;9.20;63.48
26719;BME280;14326;50.794;6.060;2023-04-26T08:24:06;99947.06;;;9.29;58.10
26719;BME280;14326;50.794;6.060;2023-04-26T08:26:33;99941.22;;;9.47;57.24
26719;BME280;14326;50.794;6.060;2023-04-26T08:29:00;99951.41;;;9.24;55.36
26719;BME280;14326;50.794;6.060;2023-04-26T08:31:26;99946.94;;;9.23;55.23
26719;BME280;14326;50.794;6.060;2023-04-26T08:34:15;99954.19;;;9.30;54.99
26719;BME280;14326;50.794;6.060;2023-04-26T08:41:52;99955.13;;;9.33;55.17
26719;BME280;14326;50.794;6.060;2023-04-26T08:44:26;99946.34;;;9.37;54.96
26719;BME280;14326;50.794;6.060;2023-04-26T08:46:59;99943.81;;;9.43;53.15
26719;BME280;14326;50.794;6.060;2023-04-26T08:49:33;99947.44;;;9.47;52.11
26719;BME280;14326;50.794;6.060;2023-04-26T08:52:17;99945.22;;;9.73;51.49
26719;BME280;14326;50.794;6.060;2023-04-26T08:54:48;99951.00;;;9.99;51.16
26719;BME280;14326;50.794;6.060;2023-04-26T08:57:16;99938.84;;;10.13;53.12
26719;BME280;14326;50.794;6.060;2023-04-26T08:59:45;99949.97;;;9.91;53.11
26719;BME280;14326;50.794;6.060;2023-04-26T09:02:25;99943.44;;;9.70;53.16
26719;BME280;14326;50.794;6.060;2023-04-26T09:04:53;99939.81;;;9.65;51.32
26719;BME280;14326;50.794;6.060;2023-04-26T09:07:24;99933.66;;;9.69;49.30
26719;BME280;14326;50.794;6.060;2023-04-26T09:09:57;99935.59;;;9.79;50.03
26719;BME280;14326;50.794;6.060;2023-04-26T09:12:25;99932.56;;;9.58;50.36
26719;BME280;14326;50.794;6.060;2023-04-26T09:14:51;99933.66;;;9.69;51.38
26719;BME280;14326;50.794;6.060;2023-04-26T09:17:26;99940.47;;;10.05;50.65
26719;BME280;14326;50.794;6.060;2023-04-26T09:19:54;99933.19;;;10.47;51.32
26719;BME280;14326;50.794;6.060;2023-04-26T09:22:30;99931.56;;;10.58;48.61
26719;BME280;14326;50.794;6.060;2023-04-26T09:24:57;99933.75;;;10.90;47.65
26719;BME280;14326;50.794;6.060;2023-04-26T09:27:34;99931.63;;;11.31;46.70
26719;BME280;14326;50.794;6.060;2023-04-26T09:30:05;99921.28;;;11.63;45.55
26719;BME280;14326;50.794;6.060;2023-04-26T09:32:51;99921.88;;;11.34;45.67
26719;BME280;14326;50.794;6.060;2023-04-26T09:35:29;99923.41;;;11.13;47.18
26719;BME280;14326;50.794;6.060;2023-04-26T09:37:58;99922.25;;;10.92;46.27
26719;BME280;14326;50.794;6.060;2023-04-26T09:40:26;99912.03;;;10.56;48.25
26719;BME280;14326;50.794;6.060;2023-04-26T09:42:58;99921.44;;;10.33;48.39
26719;BME280;14326;50.794;6.060;2023-04-26T09:45:25;99918.69;;;10.27;47.31
26719;BME280;14326;50.794;6.060;2023-04-26T09:47:52;99921.56;;;10.41;47.60
26719;BME280;14326;50.794;6.060;2023-04-26T09:50:49;99919.75;;;10.38;48.24
26719;BME280;14326;50.794;6.060;2023-04-26T09:53:28;99925.38;;;10.59;48.82
26719;BME280;14326;50.794;6.060;2023-04-26T09:55:55;99924.63;;;10.70;47.94
26719;BME280;14326;50.794;6.060;2023-04-26T09:58:22;99923.09;;;10.87;47.57
26719;BME280;14326;50.794;6.060;2023-04-26T10:09:16;99910.84;;;11.82;45.40
26719;BME280;14326;50.794;6.060;2023-04-26T10:11:43;99906.97;;;11.55;44.44
26719;BME280;14326;50.794;6.060;2023-04-26T10:14:10;99905.16;;;11.47;45.33
26719;BME280;14326;50.794;6.060;2023-04-26T10:16:46;99900.78;;;11.56;46.73
26719;BME280;14326;50.794;6.060;2023-04-26T10:19:13;99890.44;;;11.86;46.79
26719;BME280;14326;50.794;6.060;2023-04-26T10:21:41;99894.09;;;11.96;47.04
26719;BME280;14326;50.794;6.060;2023-04-26T10:24:17;99896.00;;;12.19;45.18
26719;BME280;14326;50.794;6.060;2023-04-26T10:26:48;99897.03;;;12.40;44.59
26719;BME280;14326;50.794;6.060;2023-04-26T10:29:16;99895.91;;;12.04;44.73
26719;BME280;14326;50.794;6.060;2023-04-26T10:32:05;99896.44;;;11.67;45.17
26719;BME280;14326;50.794;6.060;2023-04-26T10:34:43;99898.97;;;11.52;45.94
26719;BME280;14326;50.794;6.060;2023-04-26T10:37:17;99893.72;;;11.61;46.12
26719;BME280;14326;50.794;6.060;2023-04-26T10:39:47;99896.38;;;11.59;45.00
26719;BME280;14326;50.794;6.060;2023-04-26T10:42:21;99887.44;;;11.53;46.86
26719;BME280;14326;50.794;6.060;2023-04-26T10:44:55;99888.31;;;11.55;47.38
26719;BME280;14326;50.794;6.060;2023-04-26T10:47:25;99886.50;;;11.47;45.65
26719;BME280;14326;50.794;6.060;2023-04-26T10:50:00;99891.09;;;11.64;45.67
26719;BME280;14326;50.794;6.060;2023-04-26T10:52:28;99881.34;;;11.64;44.53
26719;BME280;14326;50.794;6.060;2023-04-26T10:55:15;99887.34;;;11.45;45.11
26719;BME280;14326;50.794;6.060;2023-04-26T10:58:25;99878.56;;;11.55;45.62
26719;BME280;14326;50.794;6.060;2023-04-26T11:01:03;99870.84;;;11.78;45.45
26719;BME280;14326;50.794;6.060;2023-04-26T11:03:29;99871.78;;;11.86;44.70
26719;BME280;14326;50.794;6.060;2023-04-26T11:05:58;99870.78;;;11.73;44.72
26719;BME280;14326;50.794;6.060;2023-04-26T11:08:28;99863.91;;;12.04;45.20
26719;BME280;14326;50.794;6.060;2023-04-26T11:11:09;99870.09;;;11.96;47.08
26719;BME280;14326;50.794;6.060;2023-04-26T11:13:45;99863.78;;;11.86;45.13
26719;BME280;14326;50.794;6.060;2023-04-26T11:16:14;99865.56;;;11.87;44.61
26719;BME280;14326;50.794;6.060;2023-04-26T11:18:42;99854.16;;;12.06;45.26
26719;BME280;14326;50.794;6.060;2023-04-26T11:21:10;99864.94;;;12.26;44.84
26719;BME280;14326;50.794;6.060;2023-04-26T11:23:39;99848.91;;;12.17;43.73
26719;BME280;14326;50.794;6.060;2023-04-26T11:26:12;99842.72;;;12.25;44.63
26719;BME280;14326;50.794;6.060;2023-04-26T11:28:39;99833.94;;;12.45;42.86
26719;BME280;14326;50.794;6.060;2023-04-26T11:31:08;99841.94;;;12.45;43.95
26719;BME280;14326;50.794;6.060;2023-04-26T11:33:35;99838.38;;;12.43;43.11
26719;BME280;14326;50.794;6.060;2023-04-26T11:36:03;99844.66;;;12.55;44.46
26719;BME280;14326;50.794;6.060;2023-04-26T11:38:29;99847.34;;;12.57;43.43
26719;BME280;14326;50.794;6.060;2023-04-26T11:40:57;99848.25;;;12.63;42.21
26719;BME280;14326;50.794;6.060;2023-04-26T11:43:35;99843.69;;;12.38;42.95
26719;BME280;14326;50.794;6.060;2023-04-26T11:46:18;99846.88;;;11.82;45.90
26719;BME280;14326;50.794;6.060;2023-04-26T11:48:52;99844.09;;;11.72;44.11
26719;BME280;14326;50.794;6.060;2023-04-26T11:51:22;99842.34;;;11.74;45.47
26719;BME280;14326;50.794;6.060;2023-04-26T11:56:38;99840.00;;;12.16;44.52
26719;BME280;14326;50.794;6.060;2023-04-26T11:59:06;99840.03;;;12.25;44.04
26719;BME280;14326;50.794;6.060;2023-04-26T12:01:39;99841.81;;;12.22;45.86
26719;BME280;14326;50.794;6.060;2023-04-26T12:04:08;99837.88;;;11.73;43.76
26719;BME280;14326;50.794;6.060;2023-04-26T12:06:41;99837.88;;;11.71;44.63
26719;BME280;14326;50.794;6.060;2023-04-26T12:09:08;99840.63;;;11.79;44.38
26719;BME280;14326;50.794;6.060;2023-04-26T12:11:35;99838.09;;;11.94;44.15
26719;BME280;14326;50.794;6.060;2023-04-26T12:14:08;99832.06;;;12.31;44.62
26719;BME280;14326;50.794;6.060;2023-04-26T12:16:37;99839.34;;;12.58;45.48
26719;BME280;14326;50.794;6.060;2023-04-26T12:19:09;99837.56;;;12.59;44.30
26719;BME280;14326;50.794;6.060;2023-04-26T12:21:46;99838.56;;;12.88;44.64
26719;BME280;14326;50.794;6.060;2023-04-26T12:24:23;99844.09;;;13.43;43.11
26719;BME280;14326;50.794;6.060;2023-04-26T12:26:55;99844.00;;;13.14;42.40
26719;BME280;14326;50.794;6.060;2023-04-26T12:29:29;99840.47;;;13.38;42.20
26719;BME280;14326;50.794;6.060;2023-04-26T12:31:56;99835.19;;;13.53;41.18
26719;BME280;14326;50.794;6.060;2023-04-26T12:34:23;99831.63;;;13.54;41.07
26719;BME280;14326;50.794;6.060;2023-04-26T12:36:50;99826.28;;;13.71;42.13
26719;BME280;14326;50.794;6.060;2023-04-26T12:39:17;99825.34;;;13.44;41.94
26719;BME280;14326;50.794;6.060;2023-04-26T12:41:54;99827.13;;;13.32;42.02
26719;BME280;14326;50.794;6.060;2023-04-26T12:44:34;99825.34;;;13.17;42.48
26719;BME280;14326;50.794;6.060;2023-04-26T12:47:02;99827.06;;;13.07;41.89
26719;BME280;14326;50.794;6.060;2023-04-26T12:49:32;99825.22;;;12.84;42.88
26719;BME280;14326;50.794;6.060;2023-04-26T12:52:01;99825.22;;;12.82;42.95
26719;BME280;14326;50.794;6.060;2023-04-26T12:54:33;99827.09;;;13.15;42.89
26719;BME280;14326;50.794;6.060;2023-04-26T12:57:10;99828.91;;;13.18;42.73
26719;BME280;14326;50.794;6.060;2023-04-26T12:59:49;99812.75;;;12.81;42.20
26719;BME280;14326;50.794;6.060;2023-04-26T13:02:15;99832.22;;;12.59;43.27
26719;BME280;14326;50.794;6.060;2023-04-26T13:04:42;99831.31;;;12.52;45.42
26719;BME280;14326;50.794;6.060;2023-04-26T13:07:10;99830.53;;;12.85;44.82
26719;BME280;14326;50.794;6.060;2023-04-26T13:09:36;99835.03;;;12.94;44.41
26719;BME280;14326;50.794;6.060;2023-04-26T13:12:04;99835.94;;;13.09;42.68
26719;BME280;14326;50.794;6.060;2023-04-26T13:14:36;99827.03;;;12.94;43.75
26719;BME280;14326;50.794;6.060;2023-04-26T13:17:11;99828.75;;;12.77;44.12
26719;BME280;14326;50.794;6.060;2023-04-26T13:19:45;99830.44;;;12.56;44.64
26719;BME280;14326;50.794;6.060;2023-04-26T13:22:15;99829.66;;;12.83;43.88
26719;BME280;14326;50.794;6.060;2023-04-26T13:24:41;99821.66;;;12.92;42.73
26719;BME280;14326;50.794;6.060;2023-04-26T13:27:08;99820.78;;;13.02;42.75
26719;BME280;14326;50.794;6.060;2023-04-26T13:29:37;99823.47;;;13.02;42.19
26719;BME280;14326;50.794;6.060;2023-04-26T13:32:04;99832.28;;;12.71;43.20
26719;BME280;14326;50.794;6.060;2023-04-26T13:34:32;99818.16;;;13.05;44.28
26719;BME280;14326;50.794;6.060;2023-04-26T13:36:59;99817.34;;;13.40;42.19
26719;BME280;14326;50.794;6.060;2023-04-26T13:39:28;99820.91;;;13.51;42.22
26719;BME280;14326;50.794;6.060;2023-04-26T13:41:58;99831.59;;;13.46;43.34
26719;BME280;14326;50.794;6.060;2023-04-26T13:49:38;99821.78;;;13.23;42.25
26719;BME280;14326;50.794;6.060;2023-04-26T13:52:06;99815.41;;;12.83;42.97
26719;BME280;14326;50.794;6.060;2023-04-26T13:57:07;99812.78;;;12.93;43.72
26719;BME280;14326;50.794;6.060;2023-04-26T13:59:46;99808.38;;;13.07;41.61
26719;BME280;14326;50.794;6.060;2023-04-26T14:02:13;99822.53;;;12.82;42.77
26719;BME280;14326;50.794;6.060;2023-04-26T14:04:41;99817.19;;;12.82;42.86
26719;BME280;14326;50.794;6.060;2023-04-26T14:07:09;99822.47;;;12.73;44.16
26719;BME280;14326;50.794;6.060;2023-04-26T14:09:38;99822.50;;;12.76;44.78
26719;BME280;14326;50.794;6.060;2023-04-26T14:12:08;99814.53;;;12.85;44.72
26719;BME280;14326;50.794;6.060;2023-04-26T14:14:42;99817.97;;;12.54;44.69
26719;BME280;14326;50.794;6.060;2023-04-26T14:17:10;99817.94;;;12.42;46.09
26719;BME280;14326;50.794;6.060;2023-04-26T14:19:37;99812.69;;;12.69;45.26